createdAt,value
2022-08-14T00:01:15.273Z,26.72
2022-08-14T00:06:28.992Z,26.69
2022-08-14T00:11:32.384Z,26.62
2022-08-14T00:16:41.220Z,26.57
2022-08-14T00:21:50.008Z,26.60
2022-08-14T00:26:54.800Z,26.50
2022-08-14T00:31:57.626Z,26.41
2022-08-14T00:37:01.972Z,26.40
2022-08-14T00:42:05.836Z,26.39
2022-08-14T00:47:10.890Z,26.34
2022-08-14T00:52:18.343Z,26.30
2022-08-14T00:57:21.893Z,26.24
2022-08-14T01:02:28.201Z,26.24
2022-08-14T01:07:38.979Z,26.17
2022-08-14T01:12:50.297Z,26.06
2022-08-14T01:18:12.275Z,26.02
2022-08-14T01:23:19.018Z,26.05
2022-08-14T01:28:47.067Z,26.03
2022-08-14T01:35:15.784Z,25.99
2022-08-14T01:39:13.226Z,25.95
2022-08-14T01:44:32.044Z,25.91
2022-08-14T01:49:46.533Z,25.93
2022-08-14T01:55:01.459Z,25.56
2022-08-14T02:00:05.156Z,25.44
2022-08-14T02:05:13.074Z,25.19
2022-08-14T02:10:18.001Z,25.14
2022-08-14T02:15:21.820Z,25.28
2022-08-14T02:20:24.592Z,25.33
2022-08-14T02:25:29.955Z,25.37
2022-08-14T02:30:34.768Z,25.32
2022-08-14T02:35:42.292Z,25.32
2022-08-14T02:40:48.754Z,25.35
2022-08-14T02:45:52.443Z,25.37
2022-08-14T02:50:55.198Z,25.30
2022-08-14T02:56:03.327Z,25.29
2022-08-14T03:01:13.041Z,25.30
2022-08-14T03:06:20.388Z,25.27
2022-08-14T03:11:39.677Z,25.22
2022-08-14T03:16:49.328Z,25.20
2022-08-14T03:21:53.999Z,25.20
2022-08-14T03:26:58.739Z,25.23
2022-08-14T03:32:01.470Z,25.27
2022-08-14T03:37:38.637Z,25.21
2022-08-14T03:42:35.662Z,24.60
2022-08-14T03:47:46.523Z,23.76
2022-08-14T03:53:02.296Z,23.51
2022-08-14T03:58:06.803Z,23.41
2022-08-14T04:03:18.046Z,23.09
2022-08-14T04:08:30.805Z,22.77
2022-08-14T04:13:37.443Z,22.72
2022-08-14T04:18:42.707Z,22.65
2022-08-14T04:23:45.679Z,22.52
2022-08-14T04:29:08.726Z,22.52
2022-08-14T04:34:24.070Z,22.53
2022-08-14T04:39:48.054Z,22.55
2022-08-14T04:45:01.615Z,22.46
2022-08-14T04:50:04.665Z,22.41
2022-08-14T04:55:08.446Z,22.34
2022-08-14T05:00:16.336Z,22.29
2022-08-14T05:05:24.898Z,22.29
2022-08-14T05:10:32.177Z,22.40
2022-08-14T05:15:39.461Z,22.31
2022-08-14T05:21:54.402Z,22.29
2022-08-14T05:26:13.072Z,22.24
2022-08-14T05:31:20.350Z,22.18
2022-08-14T05:36:23.812Z,22.18
2022-08-14T05:41:48.519Z,22.27
2022-08-14T05:46:51.036Z,22.33
2022-08-14T05:51:53.786Z,22.32
2022-08-14T05:56:56.568Z,22.37
2022-08-14T06:02:00.736Z,22.40
2022-08-14T06:07:05.032Z,22.45
2022-08-14T06:12:08.971Z,22.48
2022-08-14T06:17:15.789Z,22.40
2022-08-14T06:22:29.095Z,22.48
2022-08-14T06:27:36.825Z,22.56
2022-08-14T06:32:42.281Z,22.71
2022-08-14T06:37:46.933Z,22.75
2022-08-14T06:42:50.645Z,22.88
2022-08-14T06:47:59.216Z,23.02
2022-08-14T06:53:02.141Z,23.08
2022-08-14T06:58:05.855Z,23.19
2022-08-14T07:03:35.229Z,23.23
2022-08-14T07:08:39.186Z,23.42
2022-08-14T07:13:41.905Z,23.65
2022-08-14T07:18:46.681Z,23.79
2022-08-14T07:23:53.820Z,23.87
2022-08-14T07:28:56.640Z,24.03
2022-08-14T07:34:01.418Z,24.14
2022-08-14T07:39:12.190Z,24.19
2022-08-14T07:44:28.708Z,24.29
2022-08-14T07:49:36.689Z,24.30
2022-08-14T07:54:39.390Z,24.35
2022-08-14T07:59:44.295Z,24.39
2022-08-14T08:04:50.473Z,24.44
2022-08-14T08:09:57.867Z,24.48
2022-08-14T08:15:05.998Z,24.54
2022-08-14T08:20:16.799Z,24.57
2022-08-14T08:25:22.648Z,24.61
2022-08-14T08:30:25.442Z,24.63
2022-08-14T08:35:46.830Z,24.69
2022-08-14T08:40:55.703Z,24.71
2022-08-14T08:46:04.340Z,24.74
2022-08-14T08:51:08.768Z,24.78
2022-08-14T08:56:12.273Z,24.86
2022-08-14T09:01:33.179Z,24.85
2022-08-14T09:07:00.070Z,24.89
2022-08-14T09:12:16.323Z,24.91
2022-08-14T09:17:19.124Z,24.99
2022-08-14T09:22:35.037Z,25.02
2022-08-14T09:27:39.673Z,25.11
2022-08-14T09:32:58.365Z,25.18
2022-08-14T09:38:15.440Z,25.19
2022-08-14T09:43:32.340Z,25.25
2022-08-14T09:48:35.211Z,25.32
2022-08-14T09:54:18.256Z,25.37
2022-08-14T09:59:15.444Z,25.42
2022-08-14T10:04:34.625Z,25.44
2022-08-14T10:10:00.233Z,25.47
2022-08-14T10:15:15.052Z,25.48
2022-08-14T10:20:39.968Z,25.48
2022-08-14T10:25:48.628Z,25.56
2022-08-14T10:30:54.493Z,25.61
2022-08-14T10:36:00.567Z,25.65
2022-08-14T10:41:14.920Z,25.67
2022-08-14T10:47:36.954Z,25.70
2022-08-14T10:51:42.361Z,25.76
2022-08-14T10:56:46.482Z,25.84
2022-08-14T11:01:49.215Z,25.85
2022-08-14T11:06:54.034Z,25.89
2022-08-14T11:12:33.751Z,25.95
2022-08-14T11:17:21.734Z,25.96
2022-08-14T11:22:56.937Z,25.99
2022-08-14T11:27:50.737Z,26.02
2022-08-14T11:32:54.551Z,26.02
2022-08-14T11:37:58.818Z,26.07
2022-08-14T11:43:05.366Z,26.06
2022-08-14T11:49:04.095Z,26.16
2022-08-14T11:53:42.288Z,26.12
2022-08-14T11:58:46.754Z,26.15
2022-08-14T12:03:52.105Z,26.15
2022-08-14T12:09:00.671Z,26.14
2022-08-14T12:14:13.362Z,26.18
2022-08-14T12:19:33.405Z,26.18
2022-08-14T12:24:40.249Z,26.05
2022-08-14T12:29:53.559Z,26.14
2022-08-14T12:34:56.339Z,26.15
2022-08-14T12:40:12.959Z,26.30
2022-08-14T12:45:31.128Z,26.19
2022-08-14T12:50:38.965Z,26.15
2022-08-14T12:56:18.617Z,26.15
2022-08-14T13:01:17.044Z,26.12
2022-08-14T13:06:24.507Z,26.22
2022-08-14T13:11:28.272Z,26.23
2022-08-14T13:16:38.268Z,26.21
2022-08-14T13:22:04.763Z,26.27
2022-08-14T13:27:05.017Z,26.29
2022-08-14T13:32:10.244Z,26.30
2022-08-14T13:37:14.338Z,26.29
2022-08-14T13:42:18.382Z,26.31
2022-08-14T13:47:23.458Z,26.27
2022-08-14T13:52:59.159Z,26.23
2022-08-14T13:57:57.730Z,26.24
2022-08-14T14:03:08.813Z,26.32
2022-08-14T14:08:18.841Z,26.29
2022-08-14T14:13:34.472Z,26.24
2022-08-14T14:18:41.549Z,26.16
2022-08-14T14:23:45.513Z,26.18
2022-08-14T14:28:59.350Z,26.61
2022-08-14T14:34:07.694Z,26.40
2022-08-14T14:39:25.411Z,26.34
2022-08-14T14:44:34.852Z,26.37
2022-08-14T14:49:51.479Z,26.35
2022-08-14T14:54:58.923Z,26.41
2022-08-14T15:00:03.454Z,26.42
2022-08-14T15:05:08.224Z,26.43
2022-08-14T15:10:27.498Z,26.40
2022-08-14T15:15:36.857Z,26.39
2022-08-14T15:20:40.869Z,26.45
2022-08-14T15:25:52.378Z,26.39
2022-08-14T15:30:57.835Z,26.44
2022-08-14T15:36:02.217Z,26.42
2022-08-14T15:41:08.505Z,26.23
2022-08-14T15:46:41.322Z,26.25
2022-08-14T15:51:36.553Z,26.32
2022-08-14T15:56:45.432Z,26.37
2022-08-14T16:01:55.260Z,26.37
2022-08-14T16:06:58.165Z,26.41
2022-08-14T16:12:00.971Z,26.37
2022-08-14T16:17:07.404Z,26.43
2022-08-14T16:22:58.412Z,26.51
2022-08-14T16:27:40.719Z,26.56
2022-08-14T16:32:54.818Z,26.74
2022-08-14T16:37:59.047Z,26.77
2022-08-14T16:43:27.222Z,26.79
2022-08-14T16:48:57.041Z,26.86
2022-08-14T16:53:56.336Z,26.87
2022-08-14T16:59:10.032Z,26.88
2022-08-14T17:04:24.685Z,26.95
2022-08-14T17:09:30.927Z,26.96
2022-08-14T17:15:03.879Z,26.96
2022-08-14T17:20:54.076Z,26.92
2022-08-14T17:25:39.110Z,26.91
2022-08-14T17:30:51.350Z,26.93
2022-08-14T17:36:20.946Z,26.93
2022-08-14T17:41:27.270Z,26.94
2022-08-14T17:46:43.408Z,26.95
2022-08-14T17:52:03.763Z,27.03
2022-08-14T17:57:13.217Z,27.10
2022-08-14T18:02:18.025Z,27.11
2022-08-14T18:07:50.524Z,27.13
2022-08-14T18:12:45.170Z,27.08
2022-08-14T18:17:53.080Z,27.09
2022-08-14T18:22:58.576Z,27.09
2022-08-14T18:28:01.356Z,27.10
2022-08-14T18:33:18.121Z,27.06
2022-08-14T18:38:55.330Z,27.07
2022-08-14T18:43:59.602Z,27.10
2022-08-14T18:49:15.194Z,27.14
2022-08-14T18:54:34.340Z,27.14
2022-08-14T18:59:39.288Z,27.15
2022-08-14T19:04:43.441Z,27.16
2022-08-14T19:09:56.436Z,27.19
2022-08-14T19:15:08.112Z,27.22
2022-08-14T19:20:12.301Z,27.25
2022-08-14T19:25:51.753Z,27.10
2022-08-14T19:31:41.925Z,27.28
2022-08-14T19:37:04.458Z,27.33
2022-08-14T19:42:10.609Z,27.25
2022-08-14T19:47:15.864Z,27.37
2022-08-14T19:52:22.514Z,27.39
2022-08-14T19:57:29.094Z,27.32
2022-08-14T20:02:32.086Z,27.39
2022-08-14T20:07:59.527Z,27.41
2022-08-14T20:13:07.584Z,27.37
2022-08-14T20:18:22.151Z,27.33
2022-08-14T20:23:38.259Z,27.32
2022-08-14T20:28:51.444Z,27.36
2022-08-14T20:34:03.742Z,27.21
2022-08-14T20:39:10.063Z,27.23
2022-08-14T20:44:39.369Z,27.27
2022-08-14T20:49:42.799Z,27.21
2022-08-14T20:54:50.587Z,27.28
2022-08-14T20:59:57.309Z,27.29
2022-08-14T21:05:03.621Z,27.30
2022-08-14T21:10:33.640Z,27.10
2022-08-14T21:15:32.073Z,27.12
2022-08-14T21:20:36.830Z,27.16
2022-08-14T21:25:39.713Z,27.08
2022-08-14T21:30:51.137Z,27.10
2022-08-14T21:35:56.952Z,27.17
2022-08-14T21:41:00.994Z,27.07
2022-08-14T21:46:03.841Z,26.94
2022-08-14T21:51:52.818Z,26.92
2022-08-14T21:56:37.639Z,26.90
2022-08-14T22:01:59.554Z,26.90
2022-08-14T22:07:07.114Z,26.89
2022-08-14T22:12:10.394Z,26.88
2022-08-14T22:17:16.294Z,26.92
2022-08-14T22:22:21.635Z,26.89
2022-08-14T22:27:24.811Z,26.87
2022-08-14T22:32:55.992Z,26.85
2022-08-14T22:38:35.036Z,26.82
2022-08-14T22:43:15.273Z,26.79
2022-08-14T22:48:18.959Z,26.74
2022-08-14T22:53:23.026Z,26.71
2022-08-14T22:58:31.557Z,26.68
2022-08-14T23:03:37.781Z,26.64
2022-08-14T23:08:58.131Z,26.61
2022-08-14T23:14:05.599Z,26.59
2022-08-14T23:19:15.163Z,26.57
2022-08-14T23:24:27.330Z,26.54
2022-08-14T23:29:31.402Z,26.53
2022-08-14T23:34:39.472Z,26.51
2022-08-14T23:39:52.214Z,26.48
2022-08-14T23:44:56.223Z,26.45
2022-08-14T23:50:04.237Z,26.45
2022-08-14T23:55:12.170Z,26.44
